Terminal Aerodrome Forecast
Issued by NWS

Home | Current Version | Previous Version | Text Only | Print | Product List | Glossary On
Versions: 1 2 3 4 5 6 7 8 9 10 11 12 13 14 15 16 17 18 19 20 21 22 23 24 25 26 27 28 29 30 31 32 33 34 35
582
FTUS41 KOKX 240208 AAA
TAFSWF
TAF AMD
KSWF 240208Z 2402/2506 32005KT P6SM SKC
     FM241500 35010KT P6SM SKC
     FM242100 VRB04KT P6SM SKC
      AMD NOT SKED=

USA.gov is the U.S. government's official web portal to all federal, state and local government web resources and services.